Time;durP1;ratioP1;P1;durP2;ratioP2;P2;SDS_P1;SDS_P2;PMS_P1;PMS_P2;Temp;Humidity;BMP_temperature;BMP_pressure;BME280_temperature;BME280_humidity;BME280_pressure;Samples;Min_cycle;Max_cycle;Signal;HPM_P1;HPM_P2
2023/12/31 00:01:47;;;;;;;0.40;0.40;;;;;;;2.22;100.00;99849.69;5066198;28;20024;-62
2023/12/31 00:04:13;;;;;;;0.50;0.50;;;;;;;2.18;100.00;99837.66;5066739;28;20024;-63
2023/12/31 00:06:38;;;;;;;0.40;0.40;;;;;;;2.17;100.00;99833.38;5048529;28;20029;-62
2023/12/31 00:09:03;;;;;;;0.50;0.50;;;;;;;2.17;100.00;99845.31;5066630;28;20025;-63
2023/12/31 00:11:29;;;;;;;0.50;0.50;;;;;;;2.11;100.00;99835.81;5066348;28;20082;-62
2023/12/31 00:13:54;;;;;;;0.50;0.50;;;;;;;2.05;100.00;99830.59;5066342;28;20108;-62
2023/12/31 00:16:20;;;;;;;0.40;0.40;;;;;;;2.02;100.00;99846.78;5066505;28;20016;-62
2023/12/31 00:18:45;;;;;;;0.50;0.50;;;;;;;2.02;100.00;99845.91;5066525;28;20021;-63
2023/12/31 00:21:10;;;;;;;0.50;0.50;;;;;;;2.06;100.00;99848.56;5066444;28;20024;-62
2023/12/31 00:23:36;;;;;;;0.50;0.50;;;;;;;2.09;100.00;99846.03;5048359;28;20020;-63
2023/12/31 00:26:01;;;;;;;0.40;0.40;;;;;;;2.13;100.00;99843.53;5066181;28;20028;-63
2023/12/31 00:28:26;;;;;;;0.43;0.43;;;;;;;2.11;100.00;99833.25;5066205;28;20021;-64
2023/12/31 00:30:52;;;;;;;0.40;0.40;;;;;;;2.17;100.00;99848.72;5066126;28;20045;-62
2023/12/31 00:33:17;;;;;;;0.50;0.50;;;;;;;2.17;100.00;99845.31;5066034;28;20025;-63
2023/12/31 00:35:42;;;;;;;0.50;0.50;;;;;;;2.11;100.00;99846.06;5066168;28;20024;-63
2023/12/31 00:38:08;;;;;;;0.50;0.50;;;;;;;2.06;100.00;99830.63;5066021;28;20017;-63
2023/12/31 00:40:33;;;;;;;0.50;0.50;;;;;;;2.11;100.00;99838.38;5065855;28;20092;-63
2023/12/31 00:42:58;;;;;;;0.50;0.50;;;;;;;2.16;100.00;99851.25;5066097;28;20037;-62
2023/12/31 00:45:24;;;;;;;0.50;0.50;;;;;;;2.16;100.00;99853.81;5065878;28;20420;-63
2023/12/31 00:47:49;;;;;;;0.50;0.50;;;;;;;2.14;100.00;99847.84;5065767;28;20052;-63
2023/12/31 00:50:15;;;;;;;0.40;0.40;;;;;;;2.21;100.00;99853.09;5066125;28;20025;-62
2023/12/31 00:52:40;;;;;;;0.40;0.40;;;;;;;2.24;100.00;99857.38;5065728;28;20024;-62
2023/12/31 00:55:06;;;;;;;0.50;0.50;;;;;;;2.27;100.00;99852.31;5065812;28;20029;-63
2023/12/31 00:57:31;;;;;;;0.50;0.50;;;;;;;2.31;100.00;99863.50;5065742;28;20080;-63
2023/12/31 00:59:57;;;;;;;0.40;0.40;;;;;;;2.29;100.00;99852.34;5065646;28;20085;-63
2023/12/31 01:02:22;;;;;;;0.50;0.50;;;;;;;2.26;100.00;99857.41;5065673;28;20465;-63
2023/12/31 01:04:47;;;;;;;0.50;0.50;;;;;;;2.28;100.00;99860.88;5065656;28;20041;-63
2023/12/31 01:07:13;;;;;;;0.50;0.50;;;;;;;2.28;100.00;99863.44;5065456;28;20017;-63
2023/12/31 01:09:39;;;;;;;0.50;0.50;;;;;;;2.29;100.00;99865.16;5065398;28;20138;-63
2023/12/31 01:12:04;;;;;;;0.50;0.50;;;;;;;2.30;100.00;99860.06;5064682;28;20055;-63
2023/12/31 01:14:30;;;;;;;0.50;0.50;;;;;;;2.34;100.00;99863.53;5065497;28;20024;-63
2023/12/31 01:16:55;;;;;;;0.50;0.50;;;;;;;2.32;100.00;99854.94;5065427;28;20032;-62
2023/12/31 01:19:21;;;;;;;0.50;0.50;;;;;;;2.35;100.00;99865.25;5047276;28;20024;-63
2023/12/31 01:21:46;;;;;;;0.50;0.50;;;;;;;2.32;100.00;99860.94;5064823;28;20017;-63
2023/12/31 01:24:12;;;;;;;0.50;0.50;;;;;;;2.35;100.00;99865.25;5065322;28;20044;-64
2023/12/31 01:26:37;;;;;;;0.50;0.50;;;;;;;2.36;100.00;99867.00;5065093;28;20021;-63
2023/12/31 01:29:02;;;;;;;0.50;0.50;;;;;;;2.32;100.00;99866.06;5065069;28;20077;-63
2023/12/31 01:31:28;;;;;;;0.50;0.50;;;;;;;2.34;100.00;99863.53;5065271;28;20461;-63
2023/12/31 01:33:53;;;;;;;0.50;0.50;;;;;;;2.38;100.00;99874.72;5065120;28;20079;-63
2023/12/31 01:36:20;;;;;;;0.50;0.50;;;;;;;2.34;100.00;99872.09;5065214;28;20021;-63
2023/12/31 01:38:47;;;;;;;0.50;0.50;;;;;;;2.35;100.00;99870.38;5065053;28;20045;-63
2023/12/31 01:41:12;;;;;;;0.40;0.40;;;;;;;2.29;100.00;99855.78;5064843;28;20087;-62
2023/12/31 01:43:38;;;;;;;0.50;0.50;;;;;;;2.34;100.00;99858.41;5064928;28;20079;-61
2023/12/31 01:46:05;;;;;;;0.50;0.50;;;;;;;2.33;100.00;99864.38;5064917;28;20029;-61
2023/12/31 01:48:30;;;;;;;0.50;0.50;;;;;;;2.31;100.00;99871.16;5065171;28;20025;-61
2023/12/31 01:50:56;;;;;;;0.40;0.40;;;;;;;2.19;100.00;99849.63;5065099;28;20032;-62
2023/12/31 01:53:22;;;;;;;0.50;0.50;;;;;;;2.29;100.00;99866.03;5064702;28;20460;-61
2023/12/31 01:55:49;;;;;;;0.47;0.47;;;;;;;2.31;100.00;99864.34;5064591;28;20438;-62
2023/12/31 01:58:15;;;;;;;0.50;0.50;;;;;;;2.29;100.00;99857.47;5064901;28;20021;-62
2023/12/31 02:00:41;;;;;;;0.50;0.50;;;;;;;2.31;100.00;99860.91;5064725;28;20060;-62
2023/12/31 02:03:07;;;;;;;0.50;0.50;;;;;;;2.30;100.00;99854.09;5064774;28;20025;-61
2023/12/31 02:05:32;;;;;;;0.45;0.45;;;;;;;2.31;100.00;99858.38;5064719;28;20056;-61
2023/12/31 02:07:58;;;;;;;0.50;0.50;;;;;;;2.29;100.00;99854.91;5064518;28;20021;-61
2023/12/31 02:10:23;;;;;;;0.50;0.50;;;;;;;2.29;100.00;99860.03;5064608;28;20025;-61
2023/12/31 02:12:49;;;;;;;0.50;0.50;;;;;;;2.28;100.00;99866.00;5046533;28;20097;-61
2023/12/31 02:15:28;;;;;;;0.50;0.50;;;;;;;2.25;100.00;99848.03;5064690;28;20051;-61
2023/12/31 02:17:53;;;;;;;0.50;0.50;;;;;;;2.24;100.00;99857.38;5064675;28;20052;-61
2023/12/31 02:20:19;;;;;;;0.50;0.50;;;;;;;2.27;100.00;99869.41;5064707;28;20031;-61
2023/12/31 02:22:45;;;;;;;0.50;0.50;;;;;;;2.23;100.00;99861.66;5064328;28;20033;-61
2023/12/31 02:25:14;;;;;;;0.43;0.43;;;;;;;2.30;100.00;99872.84;5068695;28;20025;-61
2023/12/31 02:27:40;;;;;;;0.50;0.50;;;;;;;2.23;100.00;99859.09;5068533;28;20029;-61
2023/12/31 02:30:06;;;;;;;0.50;0.50;;;;;;;2.27;100.00;99857.44;5068027;28;20060;-61
2023/12/31 02:32:31;;;;;;;0.50;0.50;;;;;;;2.33;100.00;99869.50;5068366;28;20041;-61
2023/12/31 02:34:57;;;;;;;0.40;0.40;;;;;;;2.33;100.00;99861.81;5068308;28;20075;-60
2023/12/31 02:37:22;;;;;;;0.50;0.50;;;;;;;2.34;100.00;99868.66;5068414;28;20017;-60
2023/12/31 02:39:47;;;;;;;0.50;0.50;;;;;;;2.34;100.00;99872.09;5067901;28;20512;-60
2023/12/31 02:42:13;;;;;;;0.40;0.40;;;;;;;2.35;100.00;99866.13;5068316;28;20024;-60
2023/12/31 02:44:38;;;;;;;0.50;0.50;;;;;;;2.28;100.00;99858.31;5068254;28;20346;-60
2023/12/31 02:47:04;;;;;;;0.40;0.40;;;;;;;2.34;100.00;99864.41;5067967;28;20029;-61
2023/12/31 02:49:29;;;;;;;0.50;0.50;;;;;;;2.35;100.00;99872.94;5068295;28;20032;-61
2023/12/31 02:51:54;;;;;;;0.50;0.50;;;;;;;2.34;100.00;99873.78;5067855;28;20032;-60
2023/12/31 02:54:20;;;;;;;0.50;0.50;;;;;;;2.32;100.00;99875.44;5068215;28;20104;-61
2023/12/31 02:56:45;;;;;;;0.50;0.50;;;;;;;2.31;100.00;99874.59;5067911;28;20415;-61
2023/12/31 02:59:10;;;;;;;0.40;0.40;;;;;;;2.33;100.00;99879.75;5068004;28;20104;-60
2023/12/31 03:01:36;;;;;;;0.40;0.40;;;;;;;2.33;100.00;99878.03;5067789;28;20028;-61
2023/12/31 03:04:01;;;;;;;0.50;0.50;;;;;;;2.34;100.00;99889.16;5067954;28;20045;-60
2023/12/31 03:06:30;;;;;;;0.50;0.50;;;;;;;2.35;100.00;99891.75;5067621;28;20048;-61
2023/12/31 03:08:58;;;;;;;0.50;0.50;;;;;;;2.37;100.00;99889.19;5067967;28;20055;-61
2023/12/31 03:11:25;;;;;;;0.50;0.50;;;;;;;2.40;100.00;99890.94;5067494;28;20501;-61
2023/12/31 03:13:50;;;;;;;0.50;0.50;;;;;;;2.37;100.00;99878.97;5067542;28;20036;-61
2023/12/31 03:16:16;;;;;;;0.50;0.50;;;;;;;2.38;100.00;99880.66;5067801;28;20021;-61
2023/12/31 03:18:42;;;;;;;0.50;0.50;;;;;;;2.38;100.00;99880.66;5067541;28;20058;-61
2023/12/31 03:21:14;;;;;;;0.50;0.50;;;;;;;2.27;100.00;99870.25;5067410;28;20020;-61
2023/12/31 03:23:39;;;;;;;0.60;0.60;;;;;;;2.38;100.00;99884.94;5067519;28;20055;-62
2023/12/31 03:26:06;;;;;;;0.50;0.50;;;;;;;2.38;100.00;99888.34;5067335;28;20037;-62
2023/12/31 03:28:31;;;;;;;0.50;0.50;;;;;;;2.38;100.00;99879.81;5067445;28;20113;-62
2023/12/31 03:30:57;;;;;;;0.45;0.45;;;;;;;2.35;100.00;99881.50;5067344;28;20048;-62
2023/12/31 03:33:22;;;;;;;0.50;0.50;;;;;;;2.35;100.00;99872.94;5067349;28;20037;-61
2023/12/31 03:35:47;;;;;;;0.50;0.50;;;;;;;2.37;100.00;99884.09;5066341;28;20037;-62
2023/12/31 03:38:13;;;;;;;0.50;0.50;;;;;;;2.34;100.00;99878.91;5066977;28;20024;-62
2023/12/31 03:40:39;;;;;;;0.43;0.43;;;;;;;2.36;100.00;99887.50;5067004;28;20071;-62
2023/12/31 03:43:04;;;;;;;0.50;0.50;;;;;;;2.33;100.00;99878.03;5067092;28;20079;-61
2023/12/31 03:45:29;;;;;;;0.50;0.50;;;;;;;2.31;100.00;99883.97;5067186;28;20028;-62
2023/12/31 03:47:55;;;;;;;0.50;0.50;;;;;;;2.31;100.00;99894.22;5066804;28;20028;-62
2023/12/31 03:50:20;;;;;;;0.50;0.50;;;;;;;2.29;100.00;99890.75;5067103;28;20025;-63
2023/12/31 03:52:45;;;;;;;0.50;0.50;;;;;;;2.25;100.00;99889.88;5048769;28;20032;-62
2023/12/31 03:55:11;;;;;;;0.50;0.50;;;;;;;2.22;100.00;99888.09;5066883;28;20036;-62
2023/12/31 03:57:36;;;;;;;0.50;0.50;;;;;;;2.22;100.00;99895.78;5066896;28;20041;-63
2023/12/31 04:00:03;;;;;;;0.50;0.50;;;;;;;2.22;100.00;99903.47;5066236;28;20089;-62
2023/12/31 04:02:29;;;;;;;0.50;0.50;;;;;;;2.22;100.00;99905.19;5066793;28;20029;-62
2023/12/31 04:04:54;;;;;;;0.50;0.50;;;;;;;2.23;100.00;99906.91;5049063;28;20025;-62
2023/12/31 04:07:19;;;;;;;0.40;0.40;;;;;;;2.10;100.00;99877.66;5048601;28;20024;-62
2023/12/31 04:09:46;;;;;;;0.47;0.47;;;;;;;2.19;100.00;99908.53;5066473;28;20367;-62
2023/12/31 04:12:12;;;;;;;0.50;0.50;;;;;;;2.16;100.00;99900.81;5066689;28;20021;-61
2023/12/31 04:14:37;;;;;;;0.43;0.43;;;;;;;2.13;100.00;99897.31;5066637;28;20105;-62
2023/12/31 04:17:03;;;;;;;0.47;0.47;;;;;;;2.13;100.00;99907.56;5066726;28;20020;-63
2023/12/31 04:19:28;;;;;;;0.50;0.50;;;;;;;2.08;100.00;99920.28;5066476;28;20119;-63
2023/12/31 04:21:54;;;;;;;0.50;0.50;;;;;;;2.05;100.00;99912.53;5066464;28;20088;-63
2023/12/31 04:24:19;;;;;;;0.50;0.50;;;;;;;2.00;100.00;99916.75;5066469;28;20373;-62
2023/12/31 04:26:44;;;;;;;0.50;0.50;;;;;;;1.93;100.00;99908.06;5066242;28;20025;-62
2023/12/31 04:29:11;;;;;;;0.50;0.50;;;;;;;1.91;100.00;99905.47;5048230;28;20040;-62
2023/12/31 04:31:47;;;;;;;0.50;0.50;;;;;;;1.94;100.00;99912.34;5048357;28;20285;-62
2023/12/31 04:34:13;;;;;;;0.50;0.50;;;;;;;1.90;100.00;99906.28;5066272;28;20033;-62
2023/12/31 04:36:45;;;;;;;0.50;0.50;;;;;;;1.95;100.00;99925.19;5066049;28;20273;-62
2023/12/31 04:39:11;;;;;;;0.70;0.70;;;;;;;1.95;100.00;99916.66;5066091;28;20033;-63
2023/12/31 04:41:36;;;;;;;0.50;0.50;;;;;;;1.91;100.00;99905.47;5047862;28;20036;-62
2023/12/31 04:44:02;;;;;;;0.50;0.50;;;;;;;1.94;100.00;99907.22;5066117;28;20025;-62
2023/12/31 04:46:27;;;;;;;0.50;0.50;;;;;;;1.94;100.00;99910.66;5065600;28;20045;-63
2023/12/31 04:48:52;;;;;;;0.50;0.50;;;;;;;1.94;100.00;99908.09;5066016;28;20025;-63
2023/12/31 04:51:28;;;;;;;0.50;0.50;;;;;;;1.96;100.00;99895.31;5066008;28;20044;-64
2023/12/31 04:53:54;;;;;;;0.40;0.40;;;;;;;1.98;100.00;99886.00;5047827;28;20016;-63
2023/12/31 04:56:21;;;;;;;0.50;0.50;;;;;;;1.96;100.00;99901.31;5047732;28;20029;-64
2023/12/31 04:58:49;;;;;;;0.50;0.50;;;;;;;1.85;100.00;99882.34;5065643;28;20483;-63
2023/12/31 05:01:15;;;;;;;0.50;0.50;;;;;;;1.97;100.00;99892.78;5065704;28;20029;-62
2023/12/31 05:03:40;;;;;;;0.40;0.40;;;;;;;1.93;100.00;99878.19;5065733;28;20070;-63
2023/12/31 05:06:06;;;;;;;0.50;0.50;;;;;;;1.86;100.00;99896.84;5047652;28;20492;-63
2023/12/31 05:08:31;;;;;;;0.40;0.40;;;;;;;1.92;100.00;99890.97;5065501;28;20025;-62
2023/12/31 05:10:57;;;;;;;0.50;0.50;;;;;;;1.85;100.00;99893.41;5065386;28;20480;-61
2023/12/31 05:13:22;;;;;;;0.50;0.50;;;;;;;1.78;100.00;99885.59;5065620;28;20036;-61
2023/12/31 05:15:47;;;;;;;0.50;0.50;;;;;;;1.76;100.00;99894.97;5065530;28;20028;-61
2023/12/31 05:18:13;;;;;;;0.50;0.50;;;;;;;1.72;100.00;99873.56;5065395;28;20027;-61
2023/12/31 05:20:38;;;;;;;0.55;0.55;;;;;;;1.67;100.00;99888.81;5065368;28;20032;-62
2023/12/31 05:23:03;;;;;;;0.40;0.40;;;;;;;1.69;100.00;99884.56;5065450;28;20504;-60
2023/12/31 05:25:29;;;;;;;0.50;0.50;;;;;;;1.68;100.00;99882.84;5065201;28;20017;-61
2023/12/31 05:27:54;;;;;;;0.50;0.50;;;;;;;1.73;100.00;99885.50;5065075;28;20065;-60
2023/12/31 05:30:20;;;;;;;0.50;0.50;;;;;;;1.75;100.00;99893.22;5065028;28;20040;-62
2023/12/31 05:32:45;;;;;;;0.50;0.50;;;;;;;1.62;100.00;99887.84;5065199;28;20017;-60
2023/12/31 05:35:11;;;;;;;0.50;0.50;;;;;;;1.69;100.00;99899.94;5065467;28;20055;-61
2023/12/31 05:37:36;;;;;;;0.40;0.40;;;;;;;1.78;100.00;99908.63;5065133;28;20393;-61
2023/12/31 05:40:01;;;;;;;0.40;0.40;;;;;;;1.82;100.00;99911.28;5064872;28;20036;-61
2023/12/31 05:42:27;;;;;;;0.60;0.60;;;;;;;1.84;100.00;99908.75;5065212;28;20052;-62
2023/12/31 05:44:53;;;;;;;0.60;0.60;;;;;;;1.84;100.00;99907.06;5065158;28;20025;-62
2023/12/31 05:47:18;;;;;;;0.65;0.65;;;;;;;1.88;100.00;99909.66;5064867;28;20032;-62
2023/12/31 05:49:44;;;;;;;0.43;0.43;;;;;;;1.88;100.00;99910.53;5065103;28;20036;-62
2023/12/31 05:52:09;;;;;;;0.60;0.60;;;;;;;1.91;100.00;99899.50;5064921;28;20044;-63
2023/12/31 05:54:38;;;;;;;0.50;0.50;;;;;;;1.97;100.00;99910.72;5064954;28;20084;-63
2023/12/31 05:57:04;;;;;;;0.50;0.50;;;;;;;2.05;100.00;99920.22;5064756;28;20032;-63
2023/12/31 05:59:29;;;;;;;0.50;0.50;;;;;;;2.01;100.00;99921.88;5070698;28;20029;-61
2023/12/31 06:01:54;;;;;;;0.55;0.55;;;;;;;2.10;100.00;99914.38;5071606;28;20031;-62
2023/12/31 06:04:20;;;;;;;0.50;0.50;;;;;;;2.01;100.00;99900.53;5071593;28;20052;-62
2023/12/31 06:06:45;;;;;;;0.50;0.50;;;;;;;2.03;100.00;99904.00;5071345;28;20023;-62
2023/12/31 06:09:10;;;;;;;0.50;0.50;;;;;;;2.04;100.00;99896.34;5071508;28;20020;-65
2023/12/31 06:11:36;;;;;;;0.70;0.70;;;;;;;2.05;100.00;99913.41;5071326;28;20029;-62
2023/12/31 06:14:02;;;;;;;0.50;0.50;;;;;;;2.13;100.00;99921.22;5071157;28;20082;-62
2023/12/31 06:16:28;;;;;;;0.50;0.50;;;;;;;1.96;100.00;99923.50;5071418;28;20045;-62
2023/12/31 06:18:53;;;;;;;0.50;0.50;;;;;;;1.98;100.00;99920.13;5053355;28;20059;-63
2023/12/31 06:21:19;;;;;;;0.50;0.50;;;;;;;2.12;100.00;99923.78;5071279;28;20029;-62
2023/12/31 06:23:44;;;;;;;0.50;0.50;;;;;;;2.13;100.00;99918.69;5071425;28;20031;-62
2023/12/31 06:26:09;;;;;;;0.50;0.50;;;;;;;2.07;100.00;99921.13;5071294;28;20036;-62
2023/12/31 06:28:35;;;;;;;0.75;0.75;;;;;;;2.06;100.00;99907.44;5071240;28;20180;-62
2023/12/31 06:31:00;;;;;;;0.40;0.40;;;;;;;1.97;100.00;99913.28;5071127;28;20575;-63
2023/12/31 06:33:26;;;;;;;0.50;0.50;;;;;;;2.00;100.00;99909.06;5071216;28;20024;-62
2023/12/31 06:35:51;;;;;;;0.50;0.50;;;;;;;1.96;100.00;99901.31;5071347;28;20031;-63
2023/12/31 06:38:17;;;;;;;0.70;0.70;;;;;;;2.04;100.00;99908.25;5071349;28;20021;-62
2023/12/31 06:40:42;;;;;;;0.50;0.50;;;;;;;2.08;100.00;99921.16;5071081;28;20021;-63
2023/12/31 06:43:08;;;;;;;0.95;0.70;;;;;;;2.02;100.00;99908.25;5071198;28;20021;-62
2023/12/31 06:45:33;;;;;;;0.40;0.40;;;;;;;1.99;100.00;99908.19;5071236;28;20033;-62
2023/12/31 06:47:58;;;;;;;0.40;0.40;;;;;;;1.94;100.00;99895.28;5052783;28;20043;-61
2023/12/31 06:50:24;;;;;;;0.57;0.57;;;;;;;2.08;100.00;99915.16;5071183;28;20025;-61
2023/12/31 06:52:49;;;;;;;0.50;0.50;;;;;;;1.98;100.00;99920.13;5071071;28;20059;-62
2023/12/31 06:55:14;;;;;;;0.57;0.57;;;;;;;1.94;100.00;99920.91;5052768;28;20381;-63
2023/12/31 06:57:40;;;;;;;0.50;0.50;;;;;;;1.87;100.00;99934.41;5071386;28;20085;-63
2023/12/31 07:00:07;;;;;;;0.50;0.50;;;;;;;2.13;100.00;99913.56;5052980;28;20381;-63
2023/12/31 07:02:33;;;;;;;6.95;1.45;;;;;;;2.04;100.00;99926.19;5070852;28;20366;-62
2023/12/31 07:04:58;;;;;;;0.50;0.50;;;;;;;1.96;100.00;99921.81;5071073;28;20040;-63
2023/12/31 07:07:24;;;;;;;0.70;0.70;;;;;;;1.97;100.00;99922.66;5052604;28;20120;-63
2023/12/31 07:09:49;;;;;;;0.70;0.70;;;;;;;1.95;100.00;99930.28;5069423;28;20024;-63
2023/12/31 07:12:15;;;;;;;0.60;0.60;;;;;;;2.06;100.00;99916.84;5067761;28;20088;-63
2023/12/31 07:14:40;;;;;;;0.50;0.50;;;;;;;1.99;100.00;99892.81;5067726;28;20031;-62
2023/12/31 07:17:05;;;;;;;0.50;0.50;;;;;;;2.12;100.00;99919.53;5049638;28;20089;-63
2023/12/31 07:19:31;;;;;;;0.73;0.70;;;;;;;2.05;100.00;99917.66;5067678;28;20016;-64
2023/12/31 07:21:56;;;;;;;0.50;0.50;;;;;;;2.26;100.00;99926.56;5049665;28;20025;-63
2023/12/31 07:24:22;;;;;;;0.60;0.60;;;;;;;2.13;100.00;99915.25;5067603;28;20227;-63
2023/12/31 07:26:47;;;;;;;0.50;0.50;;;;;;;1.93;100.00;99908.91;5067368;28;20031;-63
2023/12/31 07:29:13;;;;;;;0.50;0.50;;;;;;;2.02;100.00;99912.50;5067511;28;20052;-62
2023/12/31 07:31:38;;;;;;;0.60;0.60;;;;;;;2.02;100.00;99928.72;5067459;28;20080;-63
2023/12/31 07:34:04;;;;;;;0.68;0.68;;;;;;;2.08;100.00;99915.16;5067265;28;20021;-64
2023/12/31 07:36:30;;;;;;;0.60;0.50;;;;;;;2.03;100.00;99916.78;5049277;28;20036;-62
2023/12/31 07:38:55;;;;;;;0.50;0.50;;;;;;;2.01;100.00;99926.13;5067405;28;20029;-62
2023/12/31 07:41:21;;;;;;;0.50;0.50;;;;;;;1.99;100.00;99918.44;5049114;28;20420;-64
2023/12/31 07:43:46;;;;;;;0.50;0.50;;;;;;;2.00;100.00;99921.84;5067203;28;20571;-63
2023/12/31 07:46:13;;;;;;;0.50;0.50;;;;;;;2.09;100.00;99925.44;5067242;28;20017;-62
2023/12/31 07:48:39;;;;;;;0.60;0.60;;;;;;;2.06;100.00;99932.22;5066945;28;20029;-63
2023/12/31 07:51:06;;;;;;;0.57;0.57;;;;;;;1.97;100.00;99920.09;5067096;28;20361;-62
2023/12/31 07:53:32;;;;;;;0.60;0.60;;;;;;;2.10;100.00;99922.06;5067076;28;20016;-63
2023/12/31 07:55:58;;;;;;;0.50;0.50;;;;;;;2.03;100.00;99934.72;5066906;28;20032;-63
2023/12/31 07:58:27;;;;;;;0.50;0.50;;;;;;;1.97;100.00;99931.19;5067157;28;20032;-63
2023/12/31 08:00:52;;;;;;;0.50;0.50;;;;;;;1.96;100.00;99929.47;5066843;28;20159;-64
2023/12/31 08:03:18;;;;;;;0.60;0.60;;;;;;;1.98;100.00;99934.63;5067070;28;20056;-64
2023/12/31 08:05:43;;;;;;;0.50;0.50;;;;;;;2.10;100.00;99946.78;5066947;28;20055;-62
2023/12/31 08:08:11;;;;;;;0.50;0.50;;;;;;;1.95;100.00;99927.75;5066634;28;20024;-63
2023/12/31 08:10:40;;;;;;;0.50;0.50;;;;;;;1.88;100.00;99932.72;5066573;28;20112;-63
2023/12/31 08:13:06;;;;;;;0.73;0.65;;;;;;;1.93;100.00;99929.41;5048644;28;20365;-63
2023/12/31 08:15:32;;;;;;;0.50;0.50;;;;;;;1.97;100.00;99932.88;5048719;28;20021;-63
2023/12/31 08:17:57;;;;;;;0.50;0.50;;;;;;;1.91;100.00;99964.38;5066599;28;20021;-64
2023/12/31 08:20:22;;;;;;;0.70;0.70;;;;;;;1.88;100.00;99946.38;5066491;28;20027;-64
2023/12/31 08:22:52;;;;;;;0.60;0.60;;;;;;;2.10;100.00;99936.53;5066033;28;20024;-63
2023/12/31 08:25:18;;;;;;;0.60;0.60;;;;;;;1.97;100.00;99930.31;5048253;28;20020;-64
2023/12/31 08:27:43;;;;;;;19.48;1.45;;;;;;;1.98;100.00;99957.69;5048383;28;20021;-63
2023/12/31 08:30:09;;;;;;;0.50;0.50;;;;;;;1.96;100.00;99936.28;5066152;28;20120;-64
2023/12/31 08:32:34;;;;;;;0.50;0.50;;;;;;;2.07;100.00;99937.38;5066175;28;20024;-63
2023/12/31 08:35:00;;;;;;;0.50;0.50;;;;;;;2.05;100.00;99931.34;5066331;28;20079;-64
2023/12/31 08:37:25;;;;;;;0.40;0.40;;;;;;;1.98;100.00;99925.22;5048286;28;20044;-65
2023/12/31 08:39:51;;;;;;;0.60;0.60;;;;;;;2.09;100.00;99950.19;5048410;28;20021;-66
2023/12/31 08:42:16;;;;;;;0.70;0.70;;;;;;;1.94;100.00;99925.16;5047883;28;20050;-65
2023/12/31 08:44:41;;;;;;;0.50;0.50;;;;;;;1.96;100.00;99934.59;5048204;28;20021;-66
2023/12/31 08:47:07;;;;;;;1.08;1.08;;;;;;;1.97;100.00;99946.56;5066246;28;20032;-65
2023/12/31 08:49:32;;;;;;;0.43;0.43;;;;;;;1.96;100.00;99924.38;5048134;28;20029;-65
2023/12/31 08:51:57;;;;;;;0.40;0.40;;;;;;;1.99;100.00;99915.88;5065775;28;20067;-64
2023/12/31 08:54:23;;;;;;;0.50;0.50;;;;;;;2.12;100.00;99913.53;5066167;28;20021;-64
2023/12/31 08:56:48;;;;;;;0.85;0.85;;;;;;;2.10;100.00;99934.84;5065518;28;20187;-65
2023/12/31 08:59:13;;;;;;;1.08;1.08;;;;;;;2.07;100.00;99905.75;5065932;28;20025;-64
2023/12/31 09:01:39;;;;;;;0.65;0.65;;;;;;;2.11;100.00;99928.00;5065932;28;20053;-66
2023/12/31 09:04:04;;;;;;;0.50;0.50;;;;;;;2.05;100.00;99922.78;5065730;28;20405;-64
2023/12/31 09:06:30;;;;;;;0.40;0.40;;;;;;;2.07;100.00;99910.88;5065720;28;20025;-64
2023/12/31 09:08:56;;;;;;;0.50;0.50;;;;;;;2.48;99.63;99887.69;5065498;28;20021;-65
2023/12/31 09:11:22;;;;;;;0.50;0.50;;;;;;;2.15;100.00;99906.78;5065173;28;20070;-64
2023/12/31 09:13:47;;;;;;;0.60;0.60;;;;;;;2.12;100.00;99910.97;5065478;28;20020;-65
2023/12/31 09:16:13;;;;;;;5.30;0.73;;;;;;;2.20;100.00;99915.41;5065802;28;20031;-65
2023/12/31 09:18:38;;;;;;;0.63;0.63;;;;;;;2.14;100.00;99915.28;5065437;28;20435;-65
2023/12/31 09:21:03;;;;;;;0.50;0.50;;;;;;;2.33;100.00;99908.78;5065524;28;20063;-65
2023/12/31 09:23:29;;;;;;;1.02;0.93;;;;;;;2.22;100.00;99921.41;5047580;28;20043;-64
2023/12/31 09:25:55;;;;;;;0.50;0.50;;;;;;;2.26;100.00;99924.00;5065212;28;20021;-65
2023/12/31 09:28:20;;;;;;;0.70;0.70;;;;;;;2.16;100.00;99921.28;5065450;28;20029;-65
2023/12/31 09:30:45;;;;;;;0.80;0.80;;;;;;;2.23;100.00;99907.78;5065061;28;20292;-64
2023/12/31 09:33:11;;;;;;;0.50;0.50;;;;;;;2.37;100.00;99919.94;5046494;28;20032;-63
2023/12/31 09:35:37;;;;;;;0.60;0.60;;;;;;;2.33;100.00;99910.50;5065443;28;20035;-64
2023/12/31 09:38:02;;;;;;;0.50;0.50;;;;;;;2.22;100.00;99936.78;5065184;28;20047;-62
2023/12/31 09:40:28;;;;;;;0.57;0.57;;;;;;;2.29;100.00;99917.25;5046881;28;20180;-64
2023/12/31 09:42:54;;;;;;;5.78;2.05;;;;;;;2.17;100.00;99915.31;5065052;28;20025;-63
2023/12/31 09:45:24;;;;;;;1.20;1.10;;;;;;;2.39;99.57;99928.53;5047280;28;20021;-65
2023/12/31 09:47:50;;;;;;;0.57;0.57;;;;;;;2.16;100.00;99916.16;5065110;28;20077;-63
2023/12/31 09:50:18;;;;;;;0.65;0.65;;;;;;;2.15;100.00;99914.44;5065141;28;20047;-63
2023/12/31 09:52:46;;;;;;;0.50;0.50;;;;;;;2.15;100.00;99919.56;5046692;28;20051;-63
2023/12/31 09:55:14;;;;;;;0.50;0.50;;;;;;;2.15;100.00;99911.03;5064959;28;20021;-63
2023/12/31 09:57:42;;;;;;;0.60;0.60;;;;;;;2.14;100.00;99912.72;5065121;28;20029;-65
2023/12/31 10:00:08;;;;;;;0.50;0.50;;;;;;;2.22;100.00;99921.41;5047234;28;20025;-65
2023/12/31 10:02:34;;;;;;;0.55;0.55;;;;;;;2.20;100.00;99917.97;5065137;28;20035;-64
2023/12/31 10:05:00;;;;;;;0.40;0.40;;;;;;;2.16;100.00;99915.28;5064897;28;20032;-63
2023/12/31 10:07:26;;;;;;;0.50;0.50;;;;;;;2.14;100.00;99905.03;5063974;28;20025;-63
2023/12/31 10:09:54;;;;;;;0.50;0.50;;;;;;;2.16;100.00;99928.97;5064563;28;20089;-64
2023/12/31 10:12:20;;;;;;;0.47;0.47;;;;;;;2.16;100.00;99875.19;5064629;28;20017;-63
2023/12/31 10:14:46;;;;;;;0.50;0.50;;;;;;;2.16;100.00;99895.69;5064740;28;20040;-63
2023/12/31 10:17:11;;;;;;;0.50;0.50;;;;;;;2.21;99.34;99901.75;5046681;28;20021;-63
2023/12/31 10:19:38;;;;;;;0.60;0.60;;;;;;;2.20;99.88;99891.47;5046670;28;20025;-64
2023/12/31 10:22:10;;;;;;;1.55;1.45;;;;;;;2.10;100.00;99899.00;5064829;28;20107;-61
2023/12/31 10:24:35;;;;;;;;;;;;;;;2.09;100.00;99901.53;5064811;28;20115;-62
2023/12/31 10:27:03;;;;;;;0.70;0.57;;;;;;;2.12;99.82;99883.66;5064367;28;20364;-62
2023/12/31 10:29:28;;;;;;;0.50;0.50;;;;;;;2.02;100.00;99881.75;5064359;28;20378;-62
2023/12/31 10:31:54;;;;;;;0.50;0.50;;;;;;;2.02;99.77;99892.00;5064333;28;20021;-63
2023/12/31 10:34:19;;;;;;;0.60;0.60;;;;;;;2.18;98.44;99882.91;5046496;28;20070;-63
2023/12/31 10:36:46;;;;;;;0.50;0.50;;;;;;;2.31;97.86;99879.72;5064283;28;20027;-63
2023/12/31 10:39:31;;;;;;;0.50;0.50;;;;;;;2.05;98.42;99872.44;5046520;28;20025;-63
2023/12/31 10:42:03;;;;;;;0.50;0.50;;;;;;;2.27;97.65;99857.44;5046457;28;20115;-64
2023/12/31 10:44:31;;;;;;;0.60;0.60;;;;;;;2.15;98.81;99829.94;5065668;28;20465;-64
2023/12/31 10:47:00;;;;;;;0.50;0.50;;;;;;;2.17;97.67;99853.00;5068234;28;20035;-62
2023/12/31 10:49:27;;;;;;;0.60;0.60;;;;;;;1.97;99.22;99880.00;5068329;28;20469;-65
2023/12/31 10:51:53;;;;;;;0.50;0.50;;;;;;;1.98;100.00;99847.56;5068044;28;20438;-64
2023/12/31 10:54:41;;;;;;;0.70;0.70;;;;;;;1.90;99.88;99829.50;5050236;28;20084;-65
2023/12/31 10:57:09;;;;;;;0.50;0.50;;;;;;;2.06;99.83;99840.03;5055006;28;20037;-63
2023/12/31 10:59:34;;;;;;;0.60;0.60;;;;;;;1.91;100.00;99866.22;5068070;28;20076;-65
2023/12/31 11:02:01;;;;;;;0.60;0.60;;;;;;;1.96;99.58;99855.22;5068270;28;20049;-64
2023/12/31 11:04:29;;;;;;;0.73;0.73;;;;;;;1.89;99.33;99838.03;5050065;28;20021;-62
2023/12/31 11:06:55;;;;;;;0.57;0.57;;;;;;;1.94;99.79;99848.34;5067893;28;20422;-63
2023/12/31 11:09:21;;;;;;;0.88;0.88;;;;;;;1.84;99.81;99845.63;5067592;28;20476;-62
2023/12/31 11:11:49;;;;;;;0.50;0.50;;;;;;;1.76;99.76;99828.41;5049760;28;20017;-63
2023/12/31 11:14:16;;;;;;;0.40;0.40;;;;;;;1.87;99.21;99837.13;5068042;28;20029;-62
2023/12/31 11:17:09;;;;;;;0.70;0.70;;;;;;;2.06;98.12;99843.44;5067888;28;20021;-62
2023/12/31 11:19:38;;;;;;;0.50;0.50;;;;;;;1.77;99.27;99855.72;5067674;28;20028;-62
2023/12/31 11:22:24;;;;;;;0.60;0.60;;;;;;;1.82;99.64;99806.31;5067683;28;20029;-63
2023/12/31 11:24:53;;;;;;;0.50;0.50;;;;;;;1.83;98.72;99822.56;5067677;28;20028;-62
2023/12/31 11:27:19;;;;;;;0.57;0.57;;;;;;;1.75;98.09;99842.91;5049200;28;20131;-62
2023/12/31 11:29:48;;;;;;;1.42;1.25;;;;;;;1.79;98.44;99826.75;5067114;28;20097;-62